Moose Jaw, Canada
Current Conditions -  °F | °C
As of 11:00 AM on Sunday 21 Dec 2014 (Local Time) from CYQR Reporting Station
Few Clouds Few Clouds  
Wind Chill:   Ceiling: Unl
Heat Index: 18°   Visibility: 15mi
Dew Point: 16°   Wind: 14mph
Humidity: 93%   Direction: 140°SE
Pressure: 29.4"   Gusts: NA
Location:  50.4°N, 105.54°W
Report Text: CYQR 211700Z 14012KT 15SM FEW200 M08/M09 A2940 RMK CI1 SLP993
Loading
Personal Weather Stations






























Interactive Weather Map New forecast layout! Learn more

10-Day Weather Forecast

Advertisements
Track Severe Weather on mobile